Other Surface Observations
Issued by NWS Great Falls, MT

Home | Current Version | Previous Version | Text Only | Print | Product List | Glossary On
Versions: 1 2 3 4 5 6 7 8 9 10 11 12 13 14 15 16 17 18 19 20 21 22 23 24 25 26 27 28 29 30 31 32 33 34 35 36 37 38 39 40 41 42 43 44 45 46 47 48 49 50
000
SXUS55 KTFX 211514
OSOTFX

AREA AWOS OBSERVATIONS
NATIONAL WEATHER SERVICE GREAT FALLS MT
0814 AM MST Wed Feb 21 2018

METAR K3U3 211513Z AUTO 22000KT M21/M24 A3004
METAR KS71 211513Z AUTO 18000KT 10SM M29/M32 A3021
METAR K38S 211513Z AUTO 30000KT 10SM M21/M24 A3009
METAR K6S5 211513Z AUTO 13004 10SM M19/M22 A3016
METAR K1S3 211513Z AUTO 02000KT M26/M29 A3023
METAR KPWD 211513Z AUTO 13000KT 10SM M24/M27 A3027
METAR KPO1 211513Z AUTO 18000KT  10SM M22/M27 A3032



USA.gov is the U.S. government's official web portal to all federal, state and local government web resources and services.